Time;durP1;ratioP1;P1;durP2;ratioP2;P2;SDS_P1;SDS_P2;PMS_P1;PMS_P2;Temp;Humidity;BMP_temperature;BMP_pressure;BME280_temperature;BME280_humidity;BME280_pressure;Samples;Min_cycle;Max_cycle;Signal;HPM_P1;HPM_P2
2021/09/09 00:00:24;;;;;;;1.70;1.60;;;18.90;98.80;;;;;;4954431;28;20420;-78
2021/09/09 00:02:50;;;;;;;1.40;1.30;;;19.00;99.00;;;;;;4954667;29;20027;-80
2021/09/09 00:05:16;;;;;;;1.40;1.30;;;19.00;99.10;;;;;;4954276;29;20054;-79
2021/09/09 00:07:41;;;;;;;1.40;1.30;;;19.00;99.40;;;;;;4954407;29;20067;-79
2021/09/09 00:10:08;;;;;;;1.40;1.30;;;18.90;99.50;;;;;;4955734;29;20094;-80
2021/09/09 00:12:33;;;;;;;1.55;1.45;;;18.90;99.80;;;;;;4955532;28;20023;-78
2021/09/09 00:14:59;;;;;;;1.45;1.35;;;18.80;99.90;;;;;;4954429;29;20098;-76
2021/09/09 00:17:25;;;;;;;1.50;1.40;;;18.90;99.90;;;;;;4955791;29;20055;-77
2021/09/09 00:19:51;;;;;;;1.50;1.40;;;18.90;99.90;;;;;;4955122;28;20035;-79
2021/09/09 00:22:16;;;;;;;1.48;1.38;;;18.90;99.90;;;;;;4955759;29;20035;-79
2021/09/09 00:24:42;;;;;;;1.50;1.40;;;18.90;99.90;;;;;;4955311;28;20031;-78
2021/09/09 00:27:08;;;;;;;1.40;1.30;;;19.00;99.90;;;;;;4953924;29;20123;-77
2021/09/09 00:29:34;;;;;;;3.88;2.80;;;18.90;99.90;;;;;;4955649;28;20035;-78
2021/09/09 00:31:59;;;;;;;2.13;1.98;;;18.90;99.90;;;;;;4955253;28;20031;-78
2021/09/09 00:34:25;;;;;;;1.50;1.40;;;18.80;99.90;;;;;;4954159;29;20482;-79
2021/09/09 00:36:51;;;;;;;1.50;1.40;;;18.80;99.90;;;;;;4954708;28;20023;-78
2021/09/09 00:39:17;;;;;;;1.50;1.40;;;18.80;99.90;;;;;;4955253;28;20118;-78
2021/09/09 00:41:42;;;;;;;1.42;1.33;;;18.70;99.90;;;;;;4955147;28;20102;-78
2021/09/09 00:44:26;;;;;;;1.40;1.30;;;18.80;99.90;;;;;;4954876;28;20054;-79
2021/09/09 00:47:03;;;;;;;1.60;1.50;;;18.80;99.90;;;;;;4955294;28;20038;-80
2021/09/09 00:49:31;;;;;;;1.80;1.70;;;18.80;99.90;;;;;;4953869;29;20058;-80
2021/09/09 00:51:56;;;;;;;1.48;1.38;;;18.90;99.90;;;;;;4955094;28;20023;-76
2021/09/09 00:54:23;;;;;;;1.80;1.70;;;19.00;99.90;;;;;;4954753;28;20058;-79
2021/09/09 00:56:50;;;;;;;1.45;1.35;;;19.00;99.90;;;;;;4953349;29;20027;-80
2021/09/09 00:59:17;;;;;;;5.38;3.25;;;19.00;99.90;;;;;;4953579;29;20027;-79
2021/09/09 01:01:44;;;;;;;1.50;1.40;;;19.00;99.90;;;;;;4954983;28;20452;-79
2021/09/09 01:04:10;;;;;;;1.50;1.40;;;18.90;99.90;;;;;;4953366;29;20035;-80
2021/09/09 01:06:36;;;;;;;1.60;1.50;;;19.00;99.90;;;;;;4954736;28;20050;-78
2021/09/09 01:09:02;;;;;;;1.40;1.30;;;19.00;99.90;;;;;;4953584;29;20145;-80
2021/09/09 01:11:28;;;;;;;1.40;1.30;;;19.10;99.90;;;;;;4954455;28;20431;-80
2021/09/09 01:14:07;;;;;;;1.40;1.30;;;19.10;99.90;;;;;;4954675;28;20538;-79
2021/09/09 01:16:33;;;;;;;1.45;1.35;;;19.10;99.90;;;;;;4954332;28;20093;-78
2021/09/09 01:18:59;;;;;;;1.70;1.60;;;19.20;99.90;;;;;;4953439;29;20031;-79
2021/09/09 01:21:25;;;;;;;1.50;1.40;;;19.10;99.90;;;;;;4954726;29;20038;-80
2021/09/09 01:23:55;;;;;;;2.22;2.03;;;18.90;99.90;;;;;;4954855;29;20475;-80
2021/09/09 01:26:21;;;;;;;1.60;1.50;;;18.90;99.90;;;;;;4954094;28;20019;-78
2021/09/09 01:28:46;;;;;;;1.60;1.50;;;19.00;99.90;;;;;;4954557;29;20078;-79
2021/09/09 01:31:16;;;;;;;1.35;1.25;;;19.00;99.90;;;;;;4953033;29;20023;-79
2021/09/09 01:33:42;;;;;;;1.60;1.50;;;19.00;99.90;;;;;;4952559;29;20039;-79
2021/09/09 01:36:08;;;;;;;1.42;1.33;;;19.00;99.90;;;;;;4954257;28;20019;-80
2021/09/09 01:38:33;;;;;;;1.30;1.20;;;19.00;99.90;;;;;;4954115;28;20053;-79
2021/09/09 01:40:59;;;;;;;2.25;1.73;;;19.10;99.90;;;;;;4953833;29;20368;-79
2021/09/09 01:43:25;;;;;;;1.48;1.38;;;19.10;99.90;;;;;;4954122;28;20031;-79
2021/09/09 01:45:51;;;;;;;1.73;1.63;;;19.10;99.90;;;;;;4953869;28;20039;-79
2021/09/09 01:48:16;;;;;;;1.40;1.30;;;19.00;99.90;;;;;;4953981;28;20030;-79
2021/09/09 01:50:42;;;;;;;1.50;1.40;;;19.00;99.90;;;;;;4953829;28;20027;-79
2021/09/09 01:53:08;;;;;;;1.63;1.52;;;18.90;99.90;;;;;;4953868;28;20042;-79
2021/09/09 01:55:34;;;;;;;1.83;1.73;;;18.80;99.90;;;;;;4953361;28;20507;-79
2021/09/09 01:58:00;;;;;;;1.40;1.30;;;18.80;99.90;;;;;;4953876;28;20038;-79
2021/09/09 02:00:25;;;;;;;26.60;2.67;;;18.80;99.90;;;;;;4953733;29;20026;-79
2021/09/09 02:02:51;;;;;;;1.42;1.33;;;18.80;99.90;;;;;;4953888;29;20051;-80
2021/09/09 02:05:17;;;;;;;1.40;1.30;;;18.70;99.90;;;;;;4953142;28;20031;-78
2021/09/09 02:07:43;;;;;;;3.50;1.73;;;18.70;99.90;;;;;;4968386;28;20027;-78
2021/09/09 02:10:09;;;;;;;1.50;1.40;;;18.70;99.90;;;;;;4952411;29;20031;-78
2021/09/09 02:12:35;;;;;;;1.40;1.30;;;18.70;99.90;;;;;;4953515;28;20031;-78
2021/09/09 02:15:02;;;;;;;1.50;1.40;;;18.70;99.90;;;;;;4953279;28;20039;-79
2021/09/09 02:17:28;;;;;;;1.58;1.48;;;18.60;99.90;;;;;;4953629;28;20035;-77
2021/09/09 02:19:54;;;;;;;1.77;1.67;;;18.60;99.90;;;;;;4968074;28;20050;-77
2021/09/09 02:22:19;;;;;;;1.40;1.30;;;18.60;99.90;;;;;;4952816;28;20043;-77
2021/09/09 02:24:45;;;;;;;1.50;1.40;;;18.50;99.90;;;;;;4952980;28;20039;-76
2021/09/09 02:27:14;;;;;;;1.60;1.50;;;18.60;99.90;;;;;;4952051;29;20537;-76
2021/09/09 02:29:41;;;;;;;1.40;1.30;;;18.60;99.90;;;;;;4952186;29;20447;-78
2021/09/09 02:32:08;;;;;;;1.45;1.35;;;18.60;99.90;;;;;;4953235;28;20031;-77
2021/09/09 02:34:34;;;;;;;1.77;1.67;;;18.60;99.90;;;;;;4951733;29;20510;-78
2021/09/09 02:37:00;;;;;;;1.73;1.63;;;18.60;99.90;;;;;;4951416;29;20031;-77
2021/09/09 02:39:25;;;;;;;1.40;1.30;;;18.70;99.90;;;;;;4953166;28;20395;-78
2021/09/09 02:41:51;;;;;;;1.83;1.73;;;18.60;99.90;;;;;;4952507;28;20058;-79
2021/09/09 02:44:17;;;;;;;1.60;1.50;;;18.60;99.90;;;;;;4953102;28;20028;-79
2021/09/09 02:46:43;;;;;;;1.48;1.38;;;18.70;99.90;;;;;;4952878;28;20031;-79
2021/09/09 02:49:08;;;;;;;1.40;1.30;;;18.60;99.90;;;;;;4952991;28;20506;-77
2021/09/09 02:51:34;;;;;;;1.50;1.40;;;18.60;99.90;;;;;;4952556;28;20110;-78
2021/09/09 02:54:00;;;;;;;1.52;1.42;;;18.50;99.90;;;;;;4953194;28;20443;-79
2021/09/09 02:56:26;;;;;;;1.55;1.45;;;18.50;99.90;;;;;;4951716;29;20441;-79
2021/09/09 02:58:52;;;;;;;1.85;1.75;;;18.50;99.90;;;;;;4952723;28;20470;-79
2021/09/09 03:01:18;;;;;;;1.50;1.40;;;18.50;99.90;;;;;;4952612;28;20032;-77
2021/09/09 03:03:44;;;;;;;2.15;1.95;;;18.50;99.90;;;;;;4952547;28;20082;-78
2021/09/09 03:06:10;;;;;;;1.60;1.50;;;18.50;99.90;;;;;;4950988;29;20509;-76
2021/09/09 03:08:36;;;;;;;1.60;1.50;;;18.40;99.90;;;;;;4952888;28;20447;-78
2021/09/09 03:11:02;;;;;;;1.58;1.48;;;18.30;99.90;;;;;;4952648;28;20027;-78
2021/09/09 03:13:29;;;;;;;2.65;2.45;;;18.30;99.90;;;;;;4950923;29;20479;-78
2021/09/09 03:15:55;;;;;;;1.50;1.40;;;18.30;99.90;;;;;;4952415;28;20035;-79
2021/09/09 03:18:20;;;;;;;1.50;1.40;;;18.20;99.90;;;;;;4952626;28;20030;-78
2021/09/09 03:20:46;;;;;;;1.40;1.30;;;18.20;99.90;;;;;;4951885;28;20058;-79
2021/09/09 03:23:12;;;;;;;1.60;1.50;;;18.30;99.90;;;;;;4952254;28;20078;-79
2021/09/09 03:25:37;;;;;;;1.50;1.40;;;18.30;99.90;;;;;;4952250;29;20077;-79
2021/09/09 03:28:03;;;;;;;1.45;1.35;;;18.30;99.90;;;;;;4952500;28;20602;-79
2021/09/09 03:30:29;;;;;;;1.60;1.50;;;18.30;99.90;;;;;;4951750;28;20031;-79
2021/09/09 03:32:55;;;;;;;2.65;2.45;;;18.30;99.90;;;;;;4952281;28;20027;-78
2021/09/09 03:35:21;;;;;;;1.48;1.38;;;18.10;99.90;;;;;;4949877;29;20043;-78
2021/09/09 03:37:46;;;;;;;1.85;1.75;;;18.00;99.90;;;;;;4951839;28;20075;-79
2021/09/09 03:40:12;;;;;;;1.42;1.33;;;18.00;99.90;;;;;;4966713;28;20027;-79
2021/09/09 03:42:38;;;;;;;1.60;1.50;;;18.00;99.90;;;;;;4952319;28;20070;-78
2021/09/09 03:45:05;;;;;;;1.42;1.33;;;18.00;99.90;;;;;;4951793;28;20054;-78
2021/09/09 03:47:30;;;;;;;1.40;1.30;;;18.10;99.90;;;;;;4951880;28;20082;-78
2021/09/09 03:49:56;;;;;;;1.50;1.40;;;18.20;99.90;;;;;;4951932;29;20027;-78
2021/09/09 03:52:23;;;;;;;1.50;1.40;;;18.20;99.90;;;;;;4951826;28;20032;-79
2021/09/09 03:54:49;;;;;;;2.33;2.20;;;18.20;99.90;;;;;;4950847;29;20058;-78
2021/09/09 03:57:15;;;;;;;1.70;1.60;;;18.10;99.90;;;;;;4951974;29;20027;-79
2021/09/09 03:59:41;;;;;;;1.50;1.40;;;18.20;99.90;;;;;;4950741;29;20031;-78
2021/09/09 04:02:07;;;;;;;1.83;1.73;;;18.00;99.90;;;;;;4951921;28;20020;-78
2021/09/09 04:04:32;;;;;;;1.58;1.48;;;18.00;99.90;;;;;;4950715;29;20024;-78
2021/09/09 04:06:58;;;;;;;1.50;1.40;;;18.10;99.90;;;;;;4950706;29;20078;-79
2021/09/09 04:09:24;;;;;;;1.50;1.40;;;18.00;99.90;;;;;;4950703;29;20031;-79
2021/09/09 04:11:50;;;;;;;1.50;1.40;;;18.00;99.90;;;;;;4951849;28;20039;-80
2021/09/09 04:14:16;;;;;;;2.22;2.03;;;17.90;99.90;;;;;;4952098;29;20038;-79
2021/09/09 04:16:42;;;;;;;1.65;1.55;;;17.90;99.90;;;;;;4951414;28;20111;-78
2021/09/09 04:19:08;;;;;;;1.55;1.45;;;17.90;99.90;;;;;;4951705;28;20106;-81
2021/09/09 04:21:33;;;;;;;1.48;1.38;;;17.90;99.90;;;;;;4951637;28;20478;-79
2021/09/09 04:23:59;;;;;;;1.65;1.55;;;17.80;99.90;;;;;;4952243;28;20039;-79
2021/09/09 04:26:25;;;;;;;1.60;1.50;;;17.70;99.90;;;;;;4951579;28;20031;-78
2021/09/09 04:28:51;;;;;;;2.25;2.15;;;17.80;99.90;;;;;;4951951;28;20091;-79
2021/09/09 04:31:17;;;;;;;3.83;3.05;;;17.90;99.90;;;;;;4951545;28;20031;-77
2021/09/09 04:33:42;;;;;;;1.95;1.85;;;17.90;99.90;;;;;;4951564;28;20642;-79
2021/09/09 04:36:08;;;;;;;1.75;1.65;;;17.80;99.90;;;;;;4951441;28;20042;-79
2021/09/09 04:38:34;;;;;;;1.50;1.40;;;17.70;99.90;;;;;;4951463;28;20051;-78
2021/09/09 04:41:00;;;;;;;1.70;1.60;;;17.80;99.90;;;;;;4951302;28;20040;-78
2021/09/09 04:43:26;;;;;;;1.65;1.55;;;17.80;99.90;;;;;;4951824;28;20078;-80
2021/09/09 04:45:51;;;;;;;1.60;1.50;;;17.70;99.90;;;;;;4951943;28;20027;-79
2021/09/09 04:48:17;;;;;;;1.60;1.50;;;17.70;99.90;;;;;;4954736;28;20038;-79
2021/09/09 04:50:43;;;;;;;1.50;1.40;;;17.70;99.90;;;;;;4955120;28;20019;-80
2021/09/09 04:53:08;;;;;;;1.83;1.73;;;17.60;99.90;;;;;;4953757;29;20039;-79
2021/09/09 04:55:34;;;;;;;1.67;1.58;;;17.70;99.90;;;;;;4953503;29;20051;-79
2021/09/09 04:58:00;;;;;;;1.80;1.70;;;17.80;99.90;;;;;;4955023;28;20070;-78
2021/09/09 05:00:26;;;;;;;1.60;1.50;;;17.80;99.90;;;;;;4953419;29;20038;-78
2021/09/09 05:02:52;;;;;;;1.60;1.50;;;17.90;99.90;;;;;;4954780;28;20044;-78
2021/09/09 05:05:18;;;;;;;4.05;3.35;;;17.90;99.90;;;;;;4954431;28;20505;-79
2021/09/09 05:07:44;;;;;;;1.90;1.80;;;17.70;99.90;;;;;;4954901;28;20126;-78
2021/09/09 05:10:10;;;;;;;2.03;1.83;;;17.80;99.90;;;;;;4952889;29;20094;-79
2021/09/09 05:12:36;;;;;;;1.70;1.60;;;17.80;99.90;;;;;;4953162;29;20409;-79
2021/09/09 05:15:02;;;;;;;1.65;1.55;;;17.70;99.90;;;;;;4954421;28;20046;-78
2021/09/09 05:17:28;;;;;;;1.70;1.60;;;17.60;99.90;;;;;;4953053;29;20031;-79
2021/09/09 05:19:54;;;;;;;2.13;1.98;;;17.40;99.90;;;;;;4953026;29;20384;-78
2021/09/09 05:22:20;;;;;;;1.65;1.55;;;17.40;99.90;;;;;;4954443;28;20032;-78
2021/09/09 05:24:45;;;;;;;2.20;1.73;;;17.60;99.90;;;;;;4952881;29;20042;-78
2021/09/09 05:27:11;;;;;;;1.70;1.60;;;17.80;99.90;;;;;;4968559;28;20114;-78
2021/09/09 05:29:37;;;;;;;1.60;1.50;;;17.50;99.90;;;;;;4952958;29;20034;-79
2021/09/09 05:32:03;;;;;;;1.77;1.67;;;17.70;99.90;;;;;;4954001;29;20031;-78
2021/09/09 05:34:29;;;;;;;1.60;1.50;;;17.50;99.90;;;;;;4953825;29;20036;-78
2021/09/09 05:36:55;;;;;;;1.70;1.60;;;17.70;99.90;;;;;;4968134;28;20038;-78
2021/09/09 05:39:21;;;;;;;2.05;1.85;;;17.80;99.90;;;;;;4954126;28;20055;-78
2021/09/09 05:41:46;;;;;;;1.60;1.50;;;17.90;99.90;;;;;;4954197;29;20047;-77
2021/09/09 05:44:12;;;;;;;2.35;2.15;;;17.90;99.90;;;;;;4954160;28;20402;-76
2021/09/09 05:46:38;;;;;;;1.60;1.50;;;17.90;99.90;;;;;;4953450;28;20035;-78
2021/09/09 05:49:04;;;;;;;6.63;3.42;;;18.00;99.90;;;;;;4954073;29;20031;-78
2021/09/09 05:51:29;;;;;;;4.65;4.25;;;18.20;99.90;;;;;;4951820;29;20031;-77
2021/09/09 05:53:55;;;;;;;2.22;2.05;;;18.20;99.90;;;;;;4953029;29;20039;-80
2021/09/09 05:56:21;;;;;;;2.25;2.05;;;18.10;99.90;;;;;;4953117;28;20372;-77
2021/09/09 05:58:47;;;;;;;2.03;1.92;;;18.10;99.90;;;;;;4953155;29;20415;-78
2021/09/09 06:01:13;;;;;;;1.60;1.50;;;18.20;99.90;;;;;;4953630;28;20395;-78
2021/09/09 06:03:40;;;;;;;4.15;3.47;;;18.30;99.90;;;;;;4953780;28;20031;-78
2021/09/09 06:06:05;;;;;;;1.40;1.30;;;18.30;99.90;;;;;;4953470;28;20026;-78
2021/09/09 06:08:34;;;;;;;1.85;1.75;;;18.30;99.90;;;;;;4952574;29;20027;-79
2021/09/09 06:11:00;;;;;;;1.70;1.60;;;18.40;99.90;;;;;;4953765;28;20027;-79
2021/09/09 06:13:26;;;;;;;1.40;1.30;;;18.20;99.90;;;;;;4953474;28;20037;-78
2021/09/09 06:15:52;;;;;;;2.22;2.08;;;17.80;99.90;;;;;;4953492;28;20037;-79
2021/09/09 06:18:18;;;;;;;1.98;1.88;;;17.70;99.90;;;;;;4953636;28;20383;-79
2021/09/09 06:20:44;;;;;;;2.08;1.92;;;17.70;99.90;;;;;;4953305;28;20078;-79
2021/09/09 06:23:10;;;;;;;1.60;1.50;;;17.90;99.90;;;;;;4953639;28;20050;-79
2021/09/09 06:25:36;;;;;;;1.40;1.30;;;17.70;99.90;;;;;;4953397;29;20383;-78
2021/09/09 06:28:02;;;;;;;1.48;1.38;;;17.50;99.90;;;;;;4953063;28;20489;-80
2021/09/09 06:30:33;;;;;;;1.58;1.48;;;17.60;99.90;;;;;;4953156;28;20042;-79
2021/09/09 06:32:59;;;;;;;1.45;1.35;;;17.80;99.90;;;;;;4953353;29;20082;-80
2021/09/09 06:35:25;;;;;;;1.55;1.45;;;17.90;99.90;;;;;;4952942;29;20039;-80
2021/09/09 06:37:51;;;;;;;1.40;1.30;;;17.80;99.90;;;;;;4952696;28;20069;-78
2021/09/09 06:40:16;;;;;;;2.17;2.03;;;17.80;99.90;;;;;;4952988;28;20841;-79
2021/09/09 06:42:42;;;;;;;1.50;1.40;;;18.10;99.90;;;;;;4953033;28;20038;-80
2021/09/09 06:45:08;;;;;;;1.50;1.40;;;18.10;99.90;;;;;;4967533;28;20114;-79
2021/09/09 06:47:34;;;;;;;1.40;1.30;;;18.20;99.90;;;;;;4942663;29;20058;-78
2021/09/09 06:50:00;;;;;;;2.03;1.85;;;18.10;99.90;;;;;;4941666;29;20055;-80
2021/09/09 06:52:26;;;;;;;1.40;1.30;;;17.80;99.90;;;;;;4943466;29;20032;-78
2021/09/09 06:54:52;;;;;;;1.60;1.50;;;18.20;99.90;;;;;;4941752;28;20039;-78
2021/09/09 06:57:17;;;;;;;1.40;1.30;;;18.50;99.90;;;;;;4943089;28;20119;-78
2021/09/09 06:59:43;;;;;;;1.70;1.60;;;18.50;99.90;;;;;;4941438;29;20028;-80
2021/09/09 07:02:09;;;;;;;1.63;1.52;;;18.90;99.90;;;;;;4941737;28;20028;-80
2021/09/09 07:04:35;;;;;;;2.03;1.92;;;19.00;99.90;;;;;;4941987;29;20554;-82
2021/09/09 07:07:00;;;;;;;1.90;1.77;;;19.30;99.90;;;;;;4942390;29;20102;-79
2021/09/09 07:09:26;;;;;;;1.40;1.30;;;19.40;99.90;;;;;;4941659;28;20476;-79
2021/09/09 07:11:52;;;;;;;1.65;1.55;;;19.60;99.90;;;;;;4942091;29;20020;-78
2021/09/09 07:14:18;;;;;;;5.13;1.63;;;19.80;99.90;;;;;;4940527;29;20083;-78
2021/09/09 07:16:43;;;;;;;1.30;1.20;;;19.70;99.90;;;;;;4942128;28;20034;-79
2021/09/09 07:19:09;;;;;;;1.40;1.30;;;19.50;99.90;;;;;;4943388;29;20031;-80
2021/09/09 07:21:35;;;;;;;1.30;1.20;;;19.40;99.90;;;;;;4941463;29;20032;-81
2021/09/09 07:24:01;;;;;;;1.05;1.05;;;19.30;99.90;;;;;;4943500;28;20023;-80
2021/09/09 07:26:27;;;;;;;4.45;3.78;;;19.60;99.90;;;;;;4941550;28;20098;-76
2021/09/09 07:28:52;;;;;;;1.92;1.83;;;19.80;99.90;;;;;;4943376;29;20427;-80
2021/09/09 07:31:18;;;;;;;1.52;1.38;;;19.80;99.90;;;;;;4941938;29;20027;-82
2021/09/09 07:33:44;;;;;;;1.30;1.20;;;19.60;99.90;;;;;;4940426;29;20503;-81
2021/09/09 07:36:10;;;;;;;1.30;1.20;;;19.20;99.90;;;;;;4942960;29;20074;-77
2021/09/09 07:38:36;;;;;;;1.08;1.08;;;18.90;99.90;;;;;;4941316;29;20044;-79
2021/09/09 07:41:02;;;;;;;1.88;1.77;;;19.30;99.90;;;;;;4941992;29;20031;-78
2021/09/09 07:43:28;;;;;;;1.10;1.10;;;19.40;99.90;;;;;;4942953;29;20019;-77
2021/09/09 07:45:55;;;;;;;1.08;1.08;;;19.80;99.90;;;;;;4935159;29;20107;-79
2021/09/09 07:48:22;;;;;;;1.13;1.10;;;20.20;99.90;;;;;;4942014;29;20016;-79
2021/09/09 07:50:48;;;;;;;1.00;1.00;;;20.60;99.90;;;;;;4941328;28;20502;-76
2021/09/09 07:53:14;;;;;;;1.00;1.00;;;20.70;99.90;;;;;;4943091;29;20027;-82
2021/09/09 07:55:40;;;;;;;0.90;0.90;;;20.80;99.90;;;;;;4941338;29;20039;-79
2021/09/09 07:58:05;;;;;;;0.98;0.98;;;21.00;99.90;;;;;;4941718;28;20027;-81
2021/09/09 08:00:31;;;;;;;1.58;1.48;;;21.10;99.90;;;;;;4942757;29;20031;-82
2021/09/09 08:02:57;;;;;;;1.50;1.30;;;21.10;99.90;;;;;;4941352;29;20420;-81
2021/09/09 08:05:23;;;;;;;1.35;1.25;;;21.10;99.90;;;;;;4941611;28;20510;-79
2021/09/09 08:07:49;;;;;;;1.00;1.00;;;21.10;99.90;;;;;;4941618;29;20112;-79
2021/09/09 08:10:17;;;;;;;1.02;1.00;;;21.40;99.90;;;;;;4934482;29;20028;-77
2021/09/09 08:12:46;;;;;;;0.98;0.98;;;21.40;99.90;;;;;;4940933;29;20023;-78
2021/09/09 08:15:12;;;;;;;0.80;0.80;;;21.60;99.90;;;;;;4940528;28;20418;-78
2021/09/09 08:17:38;;;;;;;1.52;1.42;;;21.70;99.90;;;;;;4942324;28;20382;-78
2021/09/09 08:20:05;;;;;;;2.05;1.48;;;22.00;99.90;;;;;;4942303;29;20058;-77
2021/09/09 08:22:31;;;;;;;2.33;2.15;;;22.00;99.90;;;;;;4947005;28;20031;-77
2021/09/09 08:24:57;;;;;;;1.48;1.38;;;22.00;99.90;;;;;;4944312;29;20039;-78
2021/09/09 08:27:23;;;;;;;3.15;2.85;;;22.10;99.90;;;;;;4955498;28;20031;-77
2021/09/09 08:29:48;;;;;;;1.23;1.13;;;22.20;99.90;;;;;;4947606;29;20023;-79
2021/09/09 08:32:14;;;;;;;1.50;1.15;;;22.20;99.90;;;;;;4935884;29;20038;-78
2021/09/09 08:34:40;;;;;;;1.25;1.15;;;22.20;99.90;;;;;;4935765;29;20044;-79
2021/09/09 08:37:06;;;;;;;1.55;1.27;;;22.30;99.90;;;;;;4935308;28;20023;-79
2021/09/09 08:39:32;;;;;;;1.20;1.10;;;22.40;99.90;;;;;;4936035;29;20525;-79
2021/09/09 08:42:12;;;;;;;0.80;0.80;;;22.50;99.50;;;;;;4935717;29;20036;-79
2021/09/09 08:44:38;;;;;;;6.82;1.42;;;22.80;99.20;;;;;;4935077;29;20087;-79
2021/09/09 08:47:06;;;;;;;0.70;0.70;;;22.60;98.50;;;;;;4935799;29;20123;-81
2021/09/09 08:49:31;;;;;;;1.33;1.23;;;22.80;98.50;;;;;;4935735;29;20023;-78
2021/09/09 08:51:58;;;;;;;0.70;0.70;;;22.50;98.00;;;;;;4936053;29;20369;-81
2021/09/09 08:54:25;;;;;;;0.70;0.70;;;22.30;98.00;;;;;;4934258;29;20044;-79
2021/09/09 08:56:51;;;;;;;1.75;1.30;;;22.30;97.50;;;;;;4935950;29;20388;-77
2021/09/09 08:59:17;;;;;;;0.63;0.63;;;22.80;97.80;;;;;;4935563;29;20539;-76
2021/09/09 09:02:00;;;;;;;1.00;1.00;;;22.80;96.80;;;;;;4935691;29;20649;-78
2021/09/09 09:04:27;;;;;;;0.80;0.80;;;22.90;95.70;;;;;;4934304;29;20032;-79
2021/09/09 09:06:54;;;;;;;0.70;0.70;;;22.80;96.30;;;;;;4934125;29;20031;-78
2021/09/09 09:09:23;;;;;;;1.00;1.00;;;22.90;96.20;;;;;;4935267;29;20409;-81
2021/09/09 09:11:49;;;;;;;0.97;0.87;;;22.60;96.50;;;;;;4935535;29;20032;-78
2021/09/09 09:14:21;;;;;;;0.80;0.80;;;22.80;97.00;;;;;;4935615;29;20669;-79
2021/09/09 09:16:50;;;;;;;0.73;0.73;;;22.90;96.80;;;;;;4935448;29;20043;-80
2021/09/09 09:19:22;;;;;;;2.55;1.23;;;23.20;97.00;;;;;;4935489;29;20028;-80
2021/09/09 09:21:56;;;;;;;1.50;1.38;;;23.50;96.70;;;;;;4934858;29;20116;-79
2021/09/09 09:24:23;;;;;;;1.33;1.13;;;23.50;96.70;;;;;;4952485;29;20094;-78
2021/09/09 09:27:11;;;;;;;0.80;0.80;;;23.50;96.60;;;;;;4954444;28;20070;-79
2021/09/09 09:29:38;;;;;;;0.82;0.82;;;23.50;96.40;;;;;;4954505;29;20066;-79
2021/09/09 09:32:13;;;;;;;0.88;0.88;;;23.40;96.20;;;;;;4952683;28;20415;-79
2021/09/09 09:34:40;;;;;;;0.60;0.60;;;23.30;96.10;;;;;;4954056;28;20813;-79
2021/09/09 09:37:24;;;;;;;1.45;1.35;;;23.30;96.30;;;;;;4778365;29;20415;-80
2021/09/09 09:39:50;;;;;;;2.83;2.55;;;23.50;96.00;;;;;;4955037;29;20071;-78
2021/09/09 09:42:16;;;;;;;1.65;1.55;;;23.40;95.80;;;;;;4954136;29;20031;-78
2021/09/09 09:44:47;;;;;;;1.27;1.17;;;23.50;95.60;;;;;;4969301;28;20031;-82
2021/09/09 09:47:18;;;;;;;0.80;0.80;;;23.40;96.00;;;;;;4953275;29;20038;-88
2021/09/09 09:49:46;;;;;;;0.82;0.82;;;23.50;96.50;;;;;;4953335;29;20390;-86
2021/09/09 09:52:27;;;;;;;1.85;1.73;;;23.30;96.70;;;;;;4962025;28;20031;-82
2021/09/09 09:54:56;;;;;;;5.45;1.30;;;23.10;97.00;;;;;;4936834;29;20360;-78
2021/09/09 09:57:24;;;;;;;0.88;0.85;;;23.20;96.70;;;;;;4940597;29;20079;-79
2021/09/09 09:59:50;;;;;;;0.80;0.80;;;23.30;96.40;;;;;;4942215;29;20618;-79
2021/09/09 10:02:16;;;;;;;0.75;0.75;;;23.20;96.00;;;;;;4941335;29;20387;-79
2021/09/09 10:04:44;;;;;;;0.73;0.73;;;23.30;96.10;;;;;;4952051;29;20127;-80
2021/09/09 10:07:11;;;;;;;1.45;1.35;;;23.30;96.30;;;;;;4952977;28;20368;-82
2021/09/09 10:09:38;;;;;;;2.13;1.92;;;23.70;95.60;;;;;;4951476;28;20028;-78
2021/09/09 10:12:09;;;;;;;1.27;1.17;;;23.80;95.40;;;;;;4946390;28;20024;-77
2021/09/09 10:14:47;;;;;;;1.70;1.60;;;23.80;94.70;;;;;;4932851;29;20546;-78
2021/09/09 10:17:21;;;;;;;1.35;1.23;;;24.20;93.40;;;;;;4933867;29;20047;-81
2021/09/09 10:19:49;;;;;;;0.73;0.73;;;25.00;92.80;;;;;;4932752;29;20028;-82
2021/09/09 10:22:24;;;;;;;0.77;0.77;;;24.90;91.50;;;;;;4946912;29;20031;-81
2021/09/09 10:25:07;;;;;;;1.40;1.30;;;25.40;90.00;;;;;;4949983;28;20031;-80
2021/09/09 10:27:42;;;;;;;1.20;1.10;;;26.00;89.20;;;;;;4952871;28;20023;-80
2021/09/09 10:30:17;;;;;;;0.60;0.60;;;25.50;85.90;;;;;;4967143;28;20085;-80
2021/09/09 10:32:47;;;;;;;0.65;0.57;;;24.30;85.80;;;;;;4952592;28;20060;-82
2021/09/09 10:35:18;;;;;;;0.40;0.40;;;23.80;88.40;;;;;;4950547;29;20066;-80
2021/09/09 10:37:46;;;;;;;1.15;0.82;;;24.20;90.00;;;;;;4951945;29;20047;-81
2021/09/09 10:40:32;;;;;;;0.40;0.40;;;25.00;90.10;;;;;;4934067;29;20067;-79
2021/09/09 10:43:06;;;;;;;0.50;0.50;;;25.50;86.60;;;;;;4932279;29;20244;-81
2021/09/09 10:45:38;;;;;;;0.88;0.80;;;25.80;84.40;;;;;;4932780;29;20091;-80
2021/09/09 10:48:23;;;;;;;0.63;0.63;;;25.60;82.30;;;;;;4933111;29;20028;-81
2021/09/09 10:51:04;;;;;;;0.82;0.60;;;25.60;80.50;;;;;;4932930;29;20599;-80
2021/09/09 10:53:43;;;;;;;0.73;0.73;;;26.00;81.30;;;;;;4932630;29;20234;-81
2021/09/09 10:56:19;;;;;;;0.40;0.40;;;26.10;79.90;;;;;;4933159;29;20131;-81
2021/09/09 10:58:53;;;;;;;0.52;0.52;;;26.30;80.00;;;;;;4933058;29;20051;-80
2021/09/09 11:01:19;;;;;;;0.70;0.70;;;26.80;78.80;;;;;;4933068;29;20028;-79
2021/09/09 11:03:50;;;;;;;0.40;0.40;;;27.00;77.70;;;;;;4933392;29;20083;-80
2021/09/09 11:06:24;;;;;;;0.40;0.40;;;26.80;77.40;;;;;;4932588;29;20051;-80
2021/09/09 11:08:55;;;;;;;0.35;0.32;;;26.50;78.80;;;;;;4933211;29;20412;-81
2021/09/09 11:11:30;;;;;;;1.05;0.82;;;26.40;75.40;;;;;;4933211;29;20035;-84
2021/09/09 11:14:08;;;;;;;0.45;0.45;;;26.00;77.00;;;;;;4932301;29;20107;-79
2021/09/09 11:16:38;;;;;;;0.30;0.30;;;26.50;77.90;;;;;;4933759;29;20416;-80
2021/09/09 11:19:25;;;;;;;0.40;0.40;;;27.10;76.70;;;;;;4933633;29;20035;-83
2021/09/09 11:21:52;;;;;;;0.40;0.40;;;27.30;78.40;;;;;;4944609;29;20035;-79
2021/09/09 11:24:20;;;;;;;0.57;0.57;;;27.30;74.40;;;;;;4950945;29;20070;-80
2021/09/09 11:26:48;;;;;;;0.52;0.52;;;26.30;75.10;;;;;;4950265;29;20031;-81
2021/09/09 11:29:15;;;;;;;0.52;0.50;;;26.50;77.60;;;;;;4952100;28;20027;-80
2021/09/09 11:31:53;;;;;;;0.55;0.55;;;26.70;75.60;;;;;;4951941;28;20027;-81
2021/09/09 11:34:32;;;;;;;4.50;0.68;;;27.10;75.20;;;;;;4950851;29;20490;-81
2021/09/09 11:37:03;;;;;;;0.65;0.60;;;27.20;73.60;;;;;;4951591;29;20031;-81
2021/09/09 11:39:33;;;;;;;0.40;0.40;;;26.70;72.10;;;;;;4939832;28;20043;-82
2021/09/09 11:41:59;;;;;;;0.63;0.50;;;26.40;73.20;;;;;;4931222;29;20395;-81
2021/09/09 11:44:39;;;;;;;0.63;0.60;;;26.40;75.30;;;;;;4932871;29;20035;-79
2021/09/09 11:47:15;;;;;;;1.00;0.90;;;26.40;73.40;;;;;;4930533;29;20126;-80
2021/09/09 11:49:41;;;;;;;0.57;0.57;;;26.20;73.20;;;;;;4932870;29;20095;-81
2021/09/09 11:52:10;;;;;;;0.60;0.60;;;26.30;74.70;;;;;;4932525;29;20048;-82
2021/09/09 11:54:38;;;;;;;0.40;0.40;;;26.60;73.20;;;;;;4932180;29;20083;-83
2021/09/09 11:57:08;;;;;;;0.52;0.40;;;26.90;73.00;;;;;;4938292;29;20050;-80
2021/09/09 11:59:35;;;;;;;;;;;27.40;74.00;;;;;;4953940;29;20418;-80
2021/09/09 12:02:06;;;;;;;0.38;0.38;;;27.80;72.10;;;;;;4945781;29;19915;-81
2021/09/09 12:04:39;;;;;;;0.40;0.40;;;27.90;71.10;;;;;;4952078;28;20028;-79
2021/09/09 12:07:08;;;;;;;1.23;0.68;;;27.70;72.20;;;;;;4937756;29;20031;-81
2021/09/09 12:09:38;;;;;;;0.82;0.50;;;28.00;70.10;;;;;;4943178;29;20406;-80
2021/09/09 12:12:11;;;;;;;0.88;0.73;;;27.80;69.80;;;;;;4946032;28;20039;-80
2021/09/09 12:14:39;;;;;;;0.73;0.70;;;27.80;69.00;;;;;;4942819;29;20479;-79
2021/09/09 12:17:15;;;;;;;0.43;0.43;;;27.50;69.40;;;;;;4943315;29;20032;-79
2021/09/09 12:20:02;;;;;;;0.25;0.25;;;27.40;69.20;;;;;;4940106;29;20066;-80
2021/09/09 12:22:54;;;;;;;0.50;0.50;;;28.00;68.50;;;;;;4949643;29;20056;-80
2021/09/09 12:25:38;;;;;;;0.50;0.40;;;28.20;68.30;;;;;;4954252;29;20036;-79
2021/09/09 12:28:08;;;;;;;0.63;0.63;;;28.40;68.00;;;;;;4953707;29;20027;-79
2021/09/09 12:30:40;;;;;;;0.70;0.60;;;28.20;67.70;;;;;;4954956;28;20027;-79
2021/09/09 12:33:19;;;;;;;0.60;0.60;;;27.30;67.40;;;;;;4953698;29;20394;-80
2021/09/09 12:36:06;;;;;;;2.22;1.15;;;27.50;68.60;;;;;;4953317;29;20482;-80
2021/09/09 12:38:41;;;;;;;1.27;1.02;;;27.50;68.30;;;;;;4949093;29;20047;-80
2021/09/09 12:41:08;;;;;;;0.40;0.40;;;27.70;67.10;;;;;;4934600;29;20048;-80
2021/09/09 12:43:38;;;;;;;0.50;0.50;;;26.70;67.90;;;;;;4935904;29;20388;-80
2021/09/09 12:46:05;;;;;;;0.30;0.30;;;27.20;68.70;;;;;;4937760;29;20028;-80
2021/09/09 12:48:33;;;;;;;0.43;0.43;;;27.30;68.00;;;;;;4935648;29;20081;-79
2021/09/09 12:51:03;;;;;;;1.17;0.93;;;28.10;68.50;;;;;;4935759;29;20019;-79